Vremea mâine în Galați - Romania

Vrei sa afli care e starea vremii acum in Galati - Romania? Dorim sa iti furnizam starea vremii pentru Galati - Romania. Starea vremii Galati - Romania pentru astazi.

Vremea mâine în Galați

Temperatura minimă:
13.3 °C

Temperatura maximă:
18.4 °C

Mâine va fi: Ploi moderate
Precipitații: 87 %
Umiditate: 85%
Viteza maximă vânt mâine:
15.8 km/h

Evoluția vremii in Galați pe ore mâine

Ora: 07:00
Temperatura: °C
Sansa de precipitatii: %
Ora Descriere Temp Se simte Precipitatii Umiditate Vant
00:00Patchy rain nearby14.6°14.9°100%89%ESE 5.4 KM/H
01:00Burniță ușoară14.4°14.4°100%90%SE 7.2 KM/H
02:00Burniță ușoară14.1°13.9°100%92%SE 7.9 KM/H
03:00Patchy rain nearby14.1°14.1°100%92%SE 6.1 KM/H
04:00Burniță ușoară13.9°14.1°100%92%SE 5.8 KM/H
05:00Patchy rain nearby13.7°14.1°100%93%SE 4.7 KM/H
06:00Patchy rain nearby13.7°13.7°100%93%SE 2.9 KM/H
07:00Burniță ușoară13.7°14.3°100%93%SE 3.6 KM/H
08:00Burniță ușoară13.7°14.2°100%94%SE 4.3 KM/H
09:00Burniță ușoară13.8°14.3°100%93%SE 4.3 KM/H
10:00Ploaie ușoară13.9°14.7°100%93%SSE 3.2 KM/H
11:00Ploaie ușoară13.9°13.9°100%93%SSW 2.9 KM/H
12:00Burniță ușoară14°14°100%94%WSW 1.1 KM/H
13:00Burniță ușoară14.2°14.2°100%92%N 6.5 KM/H
14:00Ploi usoare14.5°13.6°100%89%N 13.7 KM/H
15:00Patchy rain nearby15.5°15.5°75%83%N 14.8 KM/H
16:00Patchy rain nearby16.8°16.8°100%76%N 15.1 KM/H
17:00Innorat17.9°17.9°0%69%NNE 15.8 KM/H
18:00Patchy rain nearby18.4°18.4°84%65%N 14.4 KM/H
19:00Innorat18.1°18.1°0%66%N 9.4 KM/H
20:00Innorat16.8°16.8°0%69%N 6.5 KM/H
21:00Senin15.8°15.8°0%72%N 6.1 KM/H
22:00Senin14°14°0%78%NNW 6.8 KM/H
23:00Senin13.3°13.2°0%81%N 6.8 KM/H




tutorials